Goettingen, Germany

6:15 PM CEST on August 20, 2014 (GMT +0200)
göttingen,de | Change Station
CLOSE
Current Station
Personal Weather Station
Location: Göttingen, NIEDERSACHSEN
Elevation: 741 ft
Nearby Weather Stations

Elev 741 ft 51.53 °N, 9.86 °E | Updated 10 seconds ago

Clear
Clear
62.2 °F
Feels Like 62.2 °F
N
0.4
Wind Variable Wind from West
Gusts 2.5 mph

Today
High -- | Low -- °F
--% Chance of Precip.
Yesterday
High -- | Low -- °F
Precip. -- in
6:13 AM 8:32 PM
Waning Crescent, 21% visible
Pressure 29.98 in
Visibility -9999.0 miles
Clouds
Dew Point 44 °F
Humidity 52%
Rainfall 0.00 in
Snow Depth Not available.
UV 1.0 out of 12
Pollen Not available.
Air Quality Not available.
Flu Activity Not available.
METAR EDVK 201550Z 19004KT 150V220 CAVOK 16/07 Q1015 RMK ATIS Y

More Conditions Fewer Conditions

Pressure 29.98 in
Visibility -9999.0 miles
Clouds
Dew Point 44 °F
Humidity 52%
Rainfall 0.00 in
Snow Depth Not available.
UV 1.0 out of 12
Pollen Not available.
Air Quality Not available.
Flu Activity Not available.
METAR EDVK 201550Z 19004KT 150V220 CAVOK 16/07 Q1015 RMK ATIS Y

More Conditions Fewer Conditions

10-Day Weather Forecast

Almanac

Astronomy

Aug. 20, 2014 Rise Set
Actual Time 6:13 AM CEST 8:32 PM CEST
Civil Twilight 5:36 AM CEST 9:09 PM CEST
Nautical Twilight 4:50 AM CEST 9:55 PM CEST
Astronomical Twilight 3:55 AM CEST 10:48 PM CEST
Moon 1:26 AM CEST 5:17 PM CEST
Length of Visible Light 15h 32m
Length of Day
14h 19m
Tomorrow will be 3m 41s shorter.
Waning Crescent, 21% of the Moon is Illuminated
Today
Waning Crescent
Aug 25
New
Sep 2
First Quarter
Sep 8
Full
Sep 15
Last Quarter

Today's Extremes

Country Highs Country Lows

Community

WunderPhotos

Upload Photos

1,745,684 photos uploaded!

Nearby

Snow Depth

Not available.

Earthquake Activity

City Distance Mag. Time & Date
No recent earthquake activity has been reported nearby.
Minimum magnitude displayed is 2.5.

Coastal Water Temperatures

Place Temperature
No Stations Reporting

Nearby Weather Stations